createdAt,value
2023-05-05T00:00:40.893Z,60.67
2023-05-05T00:02:43.979Z,60.34
2023-05-05T00:04:47.283Z,60.47
2023-05-05T00:06:50.029Z,59.78
2023-05-05T00:08:54.150Z,59.63
2023-05-05T00:10:57.527Z,59.45
2023-05-05T00:13:00.625Z,58.69
2023-05-05T00:15:03.511Z,58.81
2023-05-05T00:17:06.341Z,58.66
2023-05-05T00:19:09.287Z,58.70
2023-05-05T00:21:12.077Z,58.38
2023-05-05T00:23:15.244Z,58.60
2023-05-05T00:25:19.386Z,58.29
2023-05-05T00:27:22.402Z,58.32
2023-05-05T00:29:25.248Z,58.37
2023-05-05T00:31:28.156Z,58.17
2023-05-05T00:33:31.203Z,57.94
2023-05-05T00:35:34.079Z,57.99
2023-05-05T00:37:37.447Z,58.09
2023-05-05T00:39:40.202Z,58.51
2023-05-05T00:41:44.366Z,59.10
2023-05-05T00:43:47.201Z,59.19
2023-05-05T00:45:58.146Z,59.78
2023-05-05T00:48:02.125Z,59.60
2023-05-05T00:50:05.351Z,59.01
2023-05-05T00:52:09.396Z,58.74
2023-05-05T00:54:12.232Z,57.65
2023-05-05T00:56:16.556Z,57.27
2023-05-05T00:58:21.855Z,57.28
2023-05-05T01:00:25.049Z,57.31
2023-05-05T01:02:27.997Z,57.43
2023-05-05T01:04:30.880Z,57.33
2023-05-05T01:06:47.764Z,57.24
2023-05-05T01:09:04.207Z,57.18
2023-05-05T01:11:15.313Z,57.44
2023-05-05T01:13:31.372Z,57.57
2023-05-05T01:15:37.417Z,57.71
2023-05-05T01:17:44.966Z,57.92
2023-05-05T01:20:10.438Z,57.64
2023-05-05T01:22:16.168Z,58.37
2023-05-05T01:24:39.945Z,58.66
2023-05-05T01:26:56.228Z,58.52
2023-05-05T01:29:28.356Z,57.49
2023-05-05T01:31:53.274Z,57.17
2023-05-05T01:34:01.625Z,57.22
2023-05-05T01:36:08.750Z,57.39
2023-05-05T01:38:16.149Z,58.02
2023-05-05T01:40:23.701Z,57.49
2023-05-05T01:42:28.068Z,57.72
2023-05-05T01:44:33.787Z,57.68
2023-05-05T01:46:37.369Z,57.71
2023-05-05T01:48:43.597Z,57.45
2023-05-05T01:50:48.687Z,57.46
2023-05-05T01:52:52.648Z,57.54
2023-05-05T01:54:58.784Z,57.93
2023-05-05T01:57:05.075Z,57.44
2023-05-05T01:59:08.173Z,57.53
2023-05-05T02:01:13.327Z,58.10
2023-05-05T02:03:18.189Z,57.49
2023-05-05T02:05:24.730Z,57.87
2023-05-05T02:07:29.006Z,58.00
2023-05-05T02:09:33.439Z,57.98
2023-05-05T02:11:36.505Z,57.97
2023-05-05T02:13:43.049Z,58.85
2023-05-05T02:15:52.279Z,58.85
2023-05-05T02:17:56.355Z,59.32
2023-05-05T02:20:00.991Z,59.68
2023-05-05T02:22:05.095Z,59.50
2023-05-05T02:24:09.004Z,59.83
2023-05-05T02:26:15.189Z,59.77
2023-05-05T02:28:23.476Z,59.85
2023-05-05T02:30:33.174Z,59.90
2023-05-05T02:32:40.511Z,59.66
2023-05-05T02:34:48.255Z,60.31
2023-05-05T02:36:54.576Z,59.60
2023-05-05T02:39:06.390Z,59.94
2023-05-05T02:41:17.661Z,60.18
2023-05-05T02:43:24.096Z,60.22
2023-05-05T02:45:29.432Z,60.20
2023-05-05T02:47:36.447Z,60.00
2023-05-05T02:49:39.494Z,59.59
2023-05-05T02:51:42.308Z,60.62
2023-05-05T02:53:54.166Z,60.55
2023-05-05T02:56:07.127Z,60.79
2023-05-05T02:58:22.854Z,60.56
2023-05-05T03:00:35.300Z,60.73
2023-05-05T03:02:45.926Z,60.88
2023-05-05T03:04:56.390Z,61.41
2023-05-05T03:07:08.164Z,60.95
2023-05-05T03:09:15.188Z,60.66
2023-05-05T03:11:28.481Z,60.52
2023-05-05T03:13:35.771Z,60.75
2023-05-05T03:15:50.716Z,60.67
2023-05-05T03:17:57.607Z,60.92
2023-05-05T03:20:05.388Z,61.45
2023-05-05T03:22:10.897Z,61.12
2023-05-05T03:24:19.202Z,61.97
2023-05-05T03:26:39.456Z,61.56
2023-05-05T03:28:42.313Z,61.75
2023-05-05T03:30:52.850Z,61.01
2023-05-05T03:32:55.953Z,61.85
2023-05-05T03:34:58.861Z,61.30
2023-05-05T03:37:06.964Z,61.54
2023-05-05T03:39:10.700Z,61.16
2023-05-05T03:41:13.890Z,60.95
2023-05-05T03:43:19.483Z,60.72
2023-05-05T03:45:22.623Z,61.15
2023-05-05T03:47:25.706Z,61.56
2023-05-05T03:49:29.943Z,61.81
2023-05-05T03:51:33.537Z,61.93
2023-05-05T03:53:36.683Z,61.84
2023-05-05T03:55:42.326Z,62.61
2023-05-05T03:57:45.892Z,62.36
2023-05-05T03:59:50.009Z,62.83
2023-05-05T04:01:52.833Z,63.02
2023-05-05T04:03:56.256Z,62.38
2023-05-05T04:05:59.274Z,62.64
2023-05-05T04:08:03.232Z,63.13
2023-05-05T04:10:07.436Z,62.69
2023-05-05T04:12:10.664Z,63.35
2023-05-05T04:14:13.928Z,63.74
2023-05-05T04:16:18.424Z,63.26
2023-05-05T04:18:21.351Z,63.61
2023-05-05T04:20:24.183Z,63.12
2023-05-05T04:22:27.034Z,64.02
2023-05-05T04:24:30.112Z,63.96
2023-05-05T04:26:32.946Z,63.23
2023-05-05T04:28:35.833Z,63.86
2023-05-05T04:30:38.839Z,63.89
2023-05-05T04:32:43.083Z,63.69
2023-05-05T04:34:46.816Z,63.29
2023-05-05T04:36:49.618Z,63.72
2023-05-05T04:38:53.051Z,63.85
2023-05-05T04:40:55.930Z,63.58
2023-05-05T04:42:58.765Z,63.57
2023-05-05T04:45:01.821Z,64.00
2023-05-05T04:47:05.850Z,64.47
2023-05-05T04:49:10.052Z,64.38
2023-05-05T04:51:13.207Z,64.91
2023-05-05T04:53:16.792Z,64.85
2023-05-05T04:55:20.117Z,63.58
2023-05-05T04:57:22.988Z,64.23
2023-05-05T04:59:25.914Z,63.87
2023-05-05T05:01:28.734Z,64.39
2023-05-05T05:03:32.118Z,63.09
2023-05-05T05:05:36.495Z,63.27
2023-05-05T05:07:39.341Z,63.24
2023-05-05T05:09:42.260Z,63.27
2023-05-05T05:11:45.091Z,62.64
2023-05-05T05:13:47.895Z,63.21
2023-05-05T05:15:50.803Z,63.06
2023-05-05T05:17:54.494Z,64.19
2023-05-05T05:19:59.201Z,64.49
2023-05-05T05:22:03.363Z,65.00
2023-05-05T05:24:08.450Z,65.49
2023-05-05T05:26:11.309Z,65.52
2023-05-05T05:28:14.301Z,64.89
2023-05-05T05:30:25.060Z,64.22
2023-05-05T05:32:28.217Z,65.00
2023-05-05T05:34:31.401Z,64.96
2023-05-05T05:36:34.699Z,64.91
2023-05-05T05:38:38.866Z,65.12
2023-05-05T05:40:42.005Z,65.16
2023-05-05T05:42:45.229Z,65.20
2023-05-05T05:44:47.971Z,65.67
2023-05-05T05:46:50.914Z,65.73
2023-05-05T05:48:53.804Z,65.43
2023-05-05T05:50:57.099Z,64.58
2023-05-05T05:53:00.697Z,64.00
2023-05-05T05:55:06.747Z,64.02
2023-05-05T05:57:10.345Z,64.48
2023-05-05T05:59:13.174Z,64.25
2023-05-05T06:01:17.152Z,64.70
2023-05-05T06:03:20.970Z,64.96
2023-05-05T06:05:23.915Z,64.92
2023-05-05T06:07:27.771Z,64.96
2023-05-05T06:09:30.621Z,64.72
2023-05-05T06:11:35.050Z,64.67
2023-05-05T06:13:37.803Z,64.73
2023-05-05T06:15:42.202Z,64.16
2023-05-05T06:17:45.744Z,64.34
2023-05-05T06:19:48.599Z,64.42
2023-05-05T06:21:51.770Z,64.50
2023-05-05T06:23:55.047Z,64.66
2023-05-05T06:25:57.931Z,64.85
2023-05-05T06:28:02.107Z,64.57
2023-05-05T06:30:06.750Z,63.95
2023-05-05T06:32:09.787Z,64.23
2023-05-05T06:34:12.530Z,64.41
2023-05-05T06:36:15.347Z,63.87
2023-05-05T06:38:18.151Z,63.74
2023-05-05T06:40:21.013Z,63.73
2023-05-05T06:42:23.948Z,63.89
2023-05-05T06:44:31.001Z,64.43
2023-05-05T06:46:34.154Z,63.87
2023-05-05T06:48:36.995Z,63.70
2023-05-05T06:50:39.876Z,63.54
2023-05-05T06:52:42.684Z,63.55
2023-05-05T06:54:45.482Z,63.48
2023-05-05T06:56:48.280Z,64.10
2023-05-05T06:58:51.512Z,63.57
2023-05-05T07:00:55.781Z,63.27
2023-05-05T07:02:58.622Z,63.21
2023-05-05T07:05:01.537Z,62.97
2023-05-05T07:07:07.444Z,62.67
2023-05-05T07:09:10.412Z,63.39
2023-05-05T07:11:13.234Z,63.53
2023-05-05T07:13:17.381Z,62.95
2023-05-05T07:15:28.671Z,62.78
2023-05-05T07:17:33.896Z,63.33
2023-05-05T07:19:36.770Z,62.84
2023-05-05T07:21:39.700Z,63.45
2023-05-05T07:23:42.561Z,63.32
2023-05-05T07:25:45.438Z,62.95
2023-05-05T07:27:48.203Z,62.67
2023-05-05T07:29:51.222Z,62.19
2023-05-05T07:31:54.082Z,62.12
2023-05-05T07:33:58.288Z,62.09
2023-05-05T07:36:01.110Z,61.46
2023-05-05T07:38:03.896Z,61.79
2023-05-05T07:40:08.394Z,62.19
2023-05-05T07:42:11.225Z,61.44
2023-05-05T07:44:14.033Z,61.83
2023-05-05T07:46:16.884Z,62.44
2023-05-05T07:48:20.010Z,61.42
2023-05-05T07:50:24.893Z,61.42
2023-05-05T07:52:44.176Z,62.01
2023-05-05T07:54:50.850Z,60.97
2023-05-05T07:56:54.021Z,61.68
2023-05-05T07:58:56.822Z,62.07
2023-05-05T08:01:00.795Z,62.05
2023-05-05T08:03:03.956Z,61.89
2023-05-05T08:05:08.098Z,61.91
2023-05-05T08:07:12.536Z,61.69
2023-05-05T08:09:15.434Z,61.88
2023-05-05T08:11:18.377Z,62.41
2023-05-05T08:13:21.354Z,61.77
2023-05-05T08:15:24.160Z,62.03
2023-05-05T08:17:27.141Z,61.29
2023-05-05T08:19:29.966Z,61.80
2023-05-05T08:21:33.922Z,61.39
2023-05-05T08:23:39.062Z,61.29
2023-05-05T08:25:41.873Z,61.00
2023-05-05T08:27:45.952Z,60.41
2023-05-05T08:29:48.955Z,60.21
2023-05-05T08:31:51.942Z,59.78
2023-05-05T08:33:55.166Z,59.34
2023-05-05T08:35:59.936Z,58.35
2023-05-05T08:38:02.859Z,58.14
2023-05-05T08:40:08.521Z,57.44
2023-05-05T08:42:11.792Z,56.97
2023-05-05T08:44:16.106Z,56.92
2023-05-05T08:46:19.162Z,55.54
2023-05-05T08:48:24.925Z,55.43
2023-05-05T08:50:29.916Z,55.10
2023-05-05T08:52:39.562Z,54.44
2023-05-05T08:54:51.323Z,54.69
2023-05-05T08:56:59.645Z,54.56
2023-05-05T08:59:03.711Z,53.88
2023-05-05T09:01:08.207Z,54.12
2023-05-05T09:03:12.199Z,53.79
2023-05-05T09:05:15.327Z,53.56
2023-05-05T09:07:18.360Z,53.79
2023-05-05T09:09:21.406Z,53.77
2023-05-05T09:11:24.321Z,53.59
2023-05-05T09:13:28.684Z,51.30
2023-05-05T09:15:32.905Z,51.17
2023-05-05T09:17:35.810Z,50.48
2023-05-05T09:19:57.313Z,51.43
2023-05-05T09:22:00.370Z,51.40
2023-05-05T09:24:11.258Z,49.86
2023-05-05T09:26:14.445Z,48.26
2023-05-05T09:28:18.977Z,47.23
2023-05-05T09:30:26.914Z,47.33
2023-05-05T09:32:30.653Z,46.51
2023-05-05T09:34:35.350Z,46.26
2023-05-05T09:36:48.832Z,47.19
2023-05-05T09:39:06.225Z,47.72
2023-05-05T09:41:09.289Z,47.05
2023-05-05T09:43:12.338Z,46.33
2023-05-05T09:45:28.741Z,46.17
2023-05-05T09:47:35.593Z,47.32
2023-05-05T09:49:39.070Z,48.56
2023-05-05T09:51:41.998Z,47.98
2023-05-05T09:53:44.999Z,47.77
2023-05-05T09:55:55.596Z,46.09
2023-05-05T09:57:58.539Z,44.59
2023-05-05T10:00:04.126Z,44.88
2023-05-05T10:02:14.357Z,45.41
2023-05-05T10:04:25.537Z,46.57
2023-05-05T10:06:41.532Z,48.23
2023-05-05T10:08:44.296Z,46.82
2023-05-05T10:10:55.433Z,46.47
2023-05-05T10:12:58.548Z,46.71
2023-05-05T10:15:03.565Z,46.18
2023-05-05T10:17:08.033Z,46.11
2023-05-05T10:19:14.236Z,45.59
2023-05-05T10:21:21.011Z,46.83
2023-05-05T10:23:25.241Z,47.57
2023-05-05T10:25:31.478Z,46.72
2023-05-05T10:27:43.190Z,45.85
2023-05-05T10:29:53.190Z,45.87
2023-05-05T10:32:21.501Z,45.99
2023-05-05T10:34:36.256Z,45.26
2023-05-05T10:37:00.181Z,46.67
2023-05-05T10:39:06.689Z,47.18
2023-05-05T10:41:12.093Z,46.85
2023-05-05T10:43:15.281Z,45.23
2023-05-05T10:45:18.136Z,44.60
2023-05-05T10:47:23.167Z,45.18
2023-05-05T10:49:41.868Z,46.99
2023-05-05T10:51:54.533Z,45.16
2023-05-05T10:54:01.381Z,45.71
2023-05-05T10:56:11.599Z,46.03
2023-05-05T10:58:35.040Z,45.99
2023-05-05T11:00:50.783Z,46.44
2023-05-05T11:03:23.532Z,46.25
2023-05-05T11:05:27.762Z,46.13
2023-05-05T11:07:30.624Z,46.27
2023-05-05T11:09:37.045Z,45.67
2023-05-05T11:12:05.355Z,45.76
2023-05-05T11:14:22.273Z,46.02
2023-05-05T11:16:45.455Z,46.89
2023-05-05T11:18:48.349Z,46.94
2023-05-05T11:21:18.207Z,47.08
2023-05-05T11:23:24.305Z,46.38
2023-05-05T11:25:51.246Z,47.09
2023-05-05T11:28:07.001Z,46.64
2023-05-05T11:30:11.505Z,46.86
2023-05-05T11:32:15.638Z,47.53
2023-05-05T11:34:28.782Z,46.69
2023-05-05T11:36:41.999Z,46.72
2023-05-05T11:39:02.578Z,47.95
2023-05-05T11:41:13.336Z,47.61
2023-05-05T11:43:19.656Z,45.50
2023-05-05T11:45:23.934Z,47.37
2023-05-05T11:47:30.835Z,46.49
2023-05-05T11:49:35.398Z,46.41
2023-05-05T11:51:38.800Z,46.08
2023-05-05T11:53:45.035Z,46.67
2023-05-05T11:55:47.863Z,44.79
2023-05-05T11:57:50.825Z,47.31
2023-05-05T11:59:56.169Z,44.98
2023-05-05T12:01:59.407Z,44.24
2023-05-05T12:04:02.527Z,44.20
2023-05-05T12:06:06.934Z,43.91
2023-05-05T12:08:10.260Z,43.36
2023-05-05T12:10:14.520Z,44.78
2023-05-05T12:12:18.467Z,43.32
2023-05-05T12:14:22.055Z,44.84
2023-05-05T12:16:24.927Z,44.20
2023-05-05T12:18:28.213Z,43.79
2023-05-05T12:20:32.540Z,43.80
2023-05-05T12:22:35.343Z,44.28
2023-05-05T12:24:38.185Z,43.58
2023-05-05T12:26:42.741Z,43.94
2023-05-05T12:28:47.137Z,44.72
2023-05-05T12:30:56.841Z,45.24
2023-05-05T12:33:03.797Z,44.78
2023-05-05T12:35:08.052Z,44.67
2023-05-05T12:37:12.411Z,44.76
2023-05-05T12:39:15.285Z,46.33
2023-05-05T12:41:21.231Z,45.13
2023-05-05T12:43:28.487Z,46.25
2023-05-05T12:45:31.352Z,44.80
2023-05-05T12:47:35.539Z,44.95
2023-05-05T12:49:51.559Z,45.73
2023-05-05T12:51:55.637Z,47.41
2023-05-05T12:54:07.191Z,45.74
2023-05-05T12:56:35.025Z,45.68
2023-05-05T12:58:52.061Z,45.90
2023-05-05T13:01:08.990Z,45.32
2023-05-05T13:03:20.276Z,45.14
2023-05-05T13:05:32.820Z,47.00
2023-05-05T13:07:35.701Z,45.93
2023-05-05T13:09:38.677Z,45.24
2023-05-05T13:11:41.563Z,43.46
2023-05-05T13:13:44.326Z,44.00
2023-05-05T13:15:48.472Z,43.19
2023-05-05T13:17:51.338Z,44.19
2023-05-05T13:19:54.170Z,44.99
2023-05-05T13:21:58.071Z,44.39
2023-05-05T13:24:12.494Z,42.29
2023-05-05T13:26:24.783Z,43.25
2023-05-05T13:28:27.572Z,42.73
2023-05-05T13:30:30.360Z,41.69
2023-05-05T13:32:34.575Z,41.09
2023-05-05T13:34:38.907Z,41.24
2023-05-05T13:36:41.528Z,41.59
2023-05-05T13:38:44.273Z,42.80
2023-05-05T13:40:47.007Z,43.19
2023-05-05T13:42:49.847Z,43.42
2023-05-05T13:44:52.740Z,43.30
2023-05-05T13:46:55.521Z,43.91
2023-05-05T13:48:59.626Z,43.56
2023-05-05T13:51:02.474Z,43.55
2023-05-05T13:53:05.283Z,45.30
2023-05-05T13:55:09.130Z,44.98
2023-05-05T13:57:12.357Z,44.47
2023-05-05T13:59:15.178Z,44.50
2023-05-05T14:01:17.998Z,44.97
2023-05-05T14:03:20.848Z,42.91
2023-05-05T14:05:25.048Z,42.09
2023-05-05T14:07:28.003Z,42.29
2023-05-05T14:09:30.791Z,42.80
2023-05-05T14:11:33.651Z,42.78
2023-05-05T14:13:36.610Z,42.62
2023-05-05T14:15:39.407Z,42.58
2023-05-05T14:17:42.234Z,41.92
2023-05-05T14:19:45.436Z,41.85
2023-05-05T14:21:49.519Z,42.04
2023-05-05T14:23:52.428Z,41.25
2023-05-05T14:25:55.224Z,42.24
2023-05-05T14:27:58.006Z,41.92
2023-05-05T14:30:00.850Z,44.57
2023-05-05T14:32:03.751Z,42.92
2023-05-05T14:34:06.663Z,43.70
2023-05-05T14:36:09.951Z,44.90
2023-05-05T14:38:14.137Z,44.17
2023-05-05T14:40:16.837Z,44.01
2023-05-05T14:42:19.596Z,44.23
2023-05-05T14:44:22.411Z,46.09
2023-05-05T14:46:26.100Z,45.51
2023-05-05T14:48:28.940Z,45.46
2023-05-05T14:50:31.758Z,45.50
2023-05-05T14:52:34.602Z,45.76
2023-05-05T14:54:38.777Z,45.97
2023-05-05T14:56:41.728Z,45.70
2023-05-05T14:58:44.623Z,46.14
2023-05-05T15:00:47.455Z,45.47
2023-05-05T15:02:50.348Z,46.16
2023-05-05T15:04:53.543Z,46.62
2023-05-05T15:06:56.537Z,46.62
2023-05-05T15:08:59.335Z,47.39
2023-05-05T15:11:04.181Z,47.27
2023-05-05T15:13:06.995Z,48.37
2023-05-05T15:15:10.746Z,48.10
2023-05-05T15:17:13.812Z,48.58
2023-05-05T15:19:16.569Z,49.29
2023-05-05T15:21:19.317Z,49.63
2023-05-05T15:23:22.061Z,50.16
2023-05-05T15:25:25.111Z,50.51
2023-05-05T15:27:30.074Z,51.51
2023-05-05T15:29:33.026Z,50.93
2023-05-05T15:31:35.901Z,51.07
2023-05-05T15:33:39.269Z,50.64
2023-05-05T15:35:42.020Z,50.75
2023-05-05T15:37:44.932Z,50.21
2023-05-05T15:39:47.788Z,50.14
2023-05-05T15:41:50.592Z,49.69
2023-05-05T15:43:54.726Z,49.70
2023-05-05T15:45:57.494Z,49.04
2023-05-05T15:48:00.329Z,48.87
2023-05-05T15:50:03.299Z,48.54
2023-05-05T15:52:06.381Z,47.99
2023-05-05T15:54:09.160Z,47.48
2023-05-05T15:56:11.958Z,47.18
2023-05-05T15:58:14.702Z,48.11
2023-05-05T16:00:19.058Z,49.20
2023-05-05T16:02:23.847Z,49.90
2023-05-05T16:04:26.814Z,50.21
2023-05-05T16:06:29.918Z,50.97
2023-05-05T16:08:32.682Z,51.61
2023-05-05T16:10:36.195Z,52.46
2023-05-05T16:12:38.958Z,55.00
2023-05-05T16:14:41.848Z,57.57
2023-05-05T16:16:46.011Z,59.13
2023-05-05T16:18:50.113Z,60.23
2023-05-05T16:20:52.892Z,60.71
2023-05-05T16:22:55.899Z,61.24
2023-05-05T16:24:58.699Z,61.37
2023-05-05T16:27:01.474Z,62.75
2023-05-05T16:29:04.317Z,61.75
2023-05-05T16:31:09.462Z,62.55
2023-05-05T16:33:13.720Z,63.44
2023-05-05T16:35:16.547Z,64.13
2023-05-05T16:37:19.348Z,64.75
2023-05-05T16:39:22.100Z,64.30
2023-05-05T16:41:25.957Z,65.08
2023-05-05T16:43:28.829Z,65.41
2023-05-05T16:45:31.592Z,65.91
2023-05-05T16:47:34.421Z,66.45
2023-05-05T16:49:38.595Z,66.58
2023-05-05T16:51:41.352Z,66.66
2023-05-05T16:53:44.147Z,66.52
2023-05-05T16:55:50.905Z,66.55
2023-05-05T16:57:53.786Z,67.27
2023-05-05T16:59:56.931Z,66.83
2023-05-05T17:01:59.813Z,66.72
2023-05-05T17:04:02.679Z,66.68
2023-05-05T17:06:07.339Z,67.32
2023-05-05T17:08:11.185Z,67.29
2023-05-05T17:10:13.946Z,67.27
2023-05-05T17:12:16.799Z,67.27
2023-05-05T17:14:19.603Z,67.20
2023-05-05T17:16:22.598Z,66.87
2023-05-05T17:18:25.898Z,66.71
2023-05-05T17:20:28.820Z,66.60
2023-05-05T17:22:32.981Z,66.92
2023-05-05T17:24:35.780Z,67.25
2023-05-05T17:26:39.695Z,67.90
2023-05-05T17:28:42.555Z,68.57
2023-05-05T17:30:45.494Z,68.64
2023-05-05T17:32:48.661Z,68.55
2023-05-05T17:34:51.513Z,68.84
2023-05-05T17:36:54.265Z,68.94
2023-05-05T17:38:58.431Z,69.20
2023-05-05T17:41:01.613Z,69.33
2023-05-05T17:43:04.474Z,69.59
2023-05-05T17:45:08.722Z,69.19
2023-05-05T17:47:11.591Z,70.05
2023-05-05T17:49:14.455Z,69.51
2023-05-05T17:51:17.261Z,69.39
2023-05-05T17:53:20.023Z,69.70
2023-05-05T17:55:24.171Z,69.82
2023-05-05T17:57:27.004Z,69.34
2023-05-05T17:59:29.834Z,69.51
2023-05-05T18:01:32.705Z,69.22
2023-05-05T18:03:36.805Z,69.71
2023-05-05T18:05:40.808Z,69.59
2023-05-05T18:07:43.621Z,70.01
2023-05-05T18:09:46.427Z,69.62
2023-05-05T18:11:52.552Z,69.62
2023-05-05T18:13:55.799Z,69.91
2023-05-05T18:15:58.658Z,69.61
2023-05-05T18:18:01.597Z,69.90
2023-05-05T18:20:06.834Z,70.75
2023-05-05T18:22:09.610Z,71.05
2023-05-05T18:26:21.215Z,70.53
2023-05-05T18:28:25.394Z,70.70
2023-05-05T18:30:28.133Z,71.02
2023-05-05T18:32:31.259Z,70.87
2023-05-05T18:34:34.135Z,70.92
2023-05-05T18:36:36.941Z,70.84
2023-05-05T18:38:39.670Z,70.66
2023-05-05T18:40:42.556Z,70.37
2023-05-05T18:42:45.330Z,70.83
2023-05-05T18:44:49.452Z,70.73
2023-05-05T18:46:52.379Z,70.60
2023-05-05T18:48:55.205Z,70.42
2023-05-05T18:51:02.168Z,70.80
2023-05-05T18:53:04.968Z,70.61
2023-05-05T18:55:08.352Z,71.44
2023-05-05T18:57:11.327Z,71.27
2023-05-05T18:59:14.074Z,71.40
2023-05-05T19:01:18.359Z,71.06
2023-05-05T19:03:22.049Z,71.28
2023-05-05T19:05:24.949Z,70.86
2023-05-05T19:07:35.062Z,70.78
2023-05-05T19:09:38.614Z,71.35
2023-05-05T19:11:42.836Z,71.30
2023-05-05T19:13:45.786Z,71.58
2023-05-05T19:15:49.205Z,71.52
2023-05-05T19:17:53.617Z,71.98
2023-05-05T19:19:56.325Z,72.11
2023-05-05T19:21:59.947Z,71.84
2023-05-05T19:24:03.466Z,72.24
2023-05-05T19:26:06.785Z,72.16
2023-05-05T19:28:10.660Z,71.86
2023-05-05T19:30:13.788Z,72.21
2023-05-05T19:32:16.838Z,72.21
2023-05-05T19:34:21.389Z,71.42
2023-05-05T19:36:24.137Z,71.93
2023-05-05T19:38:27.626Z,71.53
2023-05-05T19:40:30.605Z,71.12
2023-05-05T19:43:23.608Z,71.38
2023-05-05T19:45:26.461Z,71.47
2023-05-05T19:47:29.280Z,71.27
2023-05-05T19:49:33.436Z,71.62
2023-05-05T19:51:36.276Z,71.79
2023-05-05T19:53:40.025Z,71.84
2023-05-05T19:55:42.811Z,72.24
2023-05-05T19:57:45.604Z,71.72
2023-05-05T19:59:49.531Z,72.25
2023-05-05T20:01:52.400Z,72.25
2023-05-05T20:03:57.002Z,72.09
2023-05-05T20:06:01.396Z,72.49
2023-05-05T20:08:04.228Z,72.19
2023-05-05T20:10:08.302Z,72.26
2023-05-05T20:12:12.143Z,72.48
2023-05-05T20:14:15.061Z,72.54
2023-05-05T20:16:18.159Z,72.45
2023-05-05T20:18:21.066Z,72.65
2023-05-05T20:20:23.935Z,72.79
2023-05-05T20:22:28.057Z,72.55
2023-05-05T20:24:31.355Z,72.92
2023-05-05T20:26:34.349Z,73.00
2023-05-05T20:28:38.999Z,72.71
2023-05-05T20:30:41.796Z,72.88
2023-05-05T20:32:44.594Z,72.64
2023-05-05T20:34:47.515Z,72.87
2023-05-05T20:36:50.666Z,72.77
2023-05-05T20:38:55.007Z,72.74
2023-05-05T20:40:57.790Z,73.03
2023-05-05T20:43:00.532Z,73.27
2023-05-05T20:45:03.480Z,73.07
2023-05-05T20:47:06.761Z,73.12
2023-05-05T20:49:09.739Z,73.23
2023-05-05T20:51:12.544Z,73.40
2023-05-05T20:53:15.512Z,73.39
2023-05-05T20:55:19.789Z,73.22
2023-05-05T20:57:22.608Z,73.37
2023-05-05T20:59:27.939Z,73.36
2023-05-05T21:01:30.959Z,73.19
2023-05-05T21:03:33.845Z,73.03
2023-05-05T21:05:37.151Z,73.32
2023-05-05T21:07:39.880Z,73.39
2023-05-05T21:09:42.856Z,73.50
2023-05-05T21:11:47.152Z,73.50
2023-05-05T21:13:49.927Z,73.36
2023-05-05T21:15:52.706Z,73.52
2023-05-05T21:17:56.144Z,73.41
2023-05-05T21:19:58.960Z,73.28
2023-05-05T21:22:02.171Z,73.60
2023-05-05T21:24:07.671Z,73.65
2023-05-05T21:26:10.793Z,73.52
2023-05-05T21:28:14.959Z,73.40
2023-05-05T21:30:18.273Z,73.60
2023-05-05T21:32:21.332Z,73.73
2023-05-05T21:34:24.150Z,73.76
2023-05-05T21:36:27.260Z,73.82
2023-05-05T21:38:30.061Z,73.77
2023-05-05T21:40:32.888Z,73.89
2023-05-05T21:42:35.674Z,74.02
2023-05-05T21:44:39.865Z,74.03
2023-05-05T21:46:42.869Z,74.05
2023-05-05T21:48:48.119Z,74.12
2023-05-05T21:50:50.957Z,74.12
2023-05-05T21:52:53.730Z,74.41
2023-05-05T21:54:56.565Z,74.51
2023-05-05T21:57:00.142Z,74.60
2023-05-05T21:59:03.773Z,74.56
2023-05-05T22:01:08.100Z,74.63
2023-05-05T22:03:11.012Z,74.60
2023-05-05T22:05:13.885Z,74.53
2023-05-05T22:07:16.690Z,74.38
2023-05-05T22:09:19.448Z,74.55
2023-05-05T22:11:22.269Z,74.57
2023-05-05T22:13:25.081Z,74.40
2023-05-05T22:15:32.824Z,74.15
2023-05-05T22:17:43.265Z,73.94
2023-05-05T22:19:46.076Z,74.03
2023-05-05T22:21:48.909Z,74.18
2023-05-05T22:23:51.693Z,74.03
2023-05-05T22:25:54.657Z,74.36
2023-05-05T22:27:57.394Z,73.96
2023-05-05T22:30:00.302Z,74.21
2023-05-05T22:32:03.066Z,74.80
2023-05-05T22:34:07.155Z,74.40
2023-05-05T22:36:11.484Z,74.79
2023-05-05T22:38:14.346Z,74.70
2023-05-05T22:40:17.249Z,74.17
2023-05-05T22:42:20.031Z,74.05
2023-05-05T22:44:22.738Z,74.02
2023-05-05T22:46:25.735Z,74.05
2023-05-05T22:48:29.787Z,74.30
2023-05-05T22:50:34.049Z,74.06
2023-05-05T22:52:36.789Z,74.08
2023-05-05T22:54:39.623Z,73.84
2023-05-05T22:56:42.411Z,74.17
2023-05-05T22:58:46.395Z,74.31
2023-05-05T23:00:49.182Z,74.26
2023-05-05T23:02:52.171Z,74.22
2023-05-05T23:04:55.801Z,73.84
2023-05-05T23:06:59.922Z,74.18
2023-05-05T23:09:02.686Z,74.06
2023-05-05T23:11:05.661Z,73.79
2023-05-05T23:13:08.563Z,73.79
2023-05-05T23:15:12.395Z,73.76
2023-05-05T23:17:15.512Z,73.72
2023-05-05T23:19:18.292Z,73.85
2023-05-05T23:21:21.200Z,74.13
2023-05-05T23:23:25.327Z,74.10
2023-05-05T23:25:28.122Z,74.28
2023-05-05T23:27:30.924Z,74.21
2023-05-05T23:29:33.764Z,74.21
2023-05-05T23:31:36.526Z,74.14
2023-05-05T23:33:39.294Z,73.95
2023-05-05T23:35:43.328Z,73.96
2023-05-05T23:37:46.096Z,73.80
2023-05-05T23:39:50.271Z,73.95
2023-05-05T23:41:53.110Z,74.29
2023-05-05T23:43:55.876Z,74.66
2023-05-05T23:45:58.707Z,74.55
2023-05-05T23:48:01.529Z,74.65
2023-05-05T23:50:04.739Z,74.33
2023-05-05T23:52:07.500Z,74.37
2023-05-05T23:54:10.283Z,74.11
2023-05-05T23:56:14.460Z,74.60
2023-05-05T23:58:17.273Z,74.54
